createdAt,value
2018-11-11T00:00:12.467Z,5.90
2018-11-11T00:01:16.511Z,5.90
2018-11-11T00:02:20.591Z,5.07
2018-11-11T00:03:25.594Z,5.80
2018-11-11T00:04:29.750Z,6.20
2018-11-11T00:05:34.616Z,5.45
2018-11-11T00:06:39.381Z,5.95
2018-11-11T00:07:43.524Z,5.78
2018-11-11T00:08:47.762Z,5.37
2018-11-11T00:09:52.053Z,5.45
2018-11-11T00:10:56.260Z,5.77
2018-11-11T00:12:00.474Z,5.70
2018-11-11T00:13:04.779Z,5.93
2018-11-11T00:14:09.065Z,5.10
2018-11-11T00:15:15.280Z,5.33
2018-11-11T00:16:19.540Z,4.73
2018-11-11T00:17:23.690Z,5.43
2018-11-11T00:18:27.987Z,5.77
2018-11-11T00:19:32.116Z,5.00
2018-11-11T00:20:36.188Z,5.90
2018-11-11T00:21:40.313Z,6.30
2018-11-11T00:22:44.382Z,5.53
2018-11-11T00:23:48.472Z,6.20
2018-11-11T00:24:52.579Z,5.63
2018-11-11T00:25:56.580Z,5.27
2018-11-11T00:27:00.783Z,6.03
2018-11-11T00:28:04.812Z,5.78
2018-11-11T00:29:09.161Z,5.75
2018-11-11T00:30:19.963Z,5.92
2018-11-11T00:31:24.062Z,5.95
2018-11-11T00:32:28.252Z,5.90
2018-11-11T00:33:32.298Z,6.73
2018-11-11T00:34:36.410Z,6.00
2018-11-11T00:35:40.449Z,5.87
2018-11-11T00:36:44.761Z,6.77
2018-11-11T00:37:50.859Z,6.25
2018-11-11T00:38:54.954Z,5.77
2018-11-11T00:39:59.057Z,6.07
2018-11-11T00:41:03.125Z,7.00
2018-11-11T00:42:07.274Z,6.33
2018-11-11T00:43:11.338Z,6.43
2018-11-11T00:44:15.488Z,6.23
2018-11-11T00:45:19.573Z,5.77
2018-11-11T00:46:23.718Z,7.37
2018-11-11T00:47:27.785Z,6.10
2018-11-11T00:48:31.896Z,5.97
2018-11-11T00:49:35.998Z,6.28
2018-11-11T00:50:40.139Z,6.25
2018-11-11T00:51:44.477Z,6.35
2018-11-11T00:52:48.639Z,6.60
2018-11-11T00:53:52.889Z,6.75
2018-11-11T00:54:57.009Z,6.05
2018-11-11T00:56:01.109Z,5.87
2018-11-11T00:57:05.604Z,6.25
2018-11-11T00:58:09.797Z,6.20
2018-11-11T00:59:13.955Z,6.30
2018-11-11T01:00:18.973Z,5.80
2018-11-11T01:01:23.040Z,6.73
2018-11-11T01:02:27.125Z,5.93
2018-11-11T01:03:31.280Z,5.97
2018-11-11T01:04:35.366Z,6.50
2018-11-11T01:05:39.507Z,6.12
2018-11-11T01:06:43.701Z,5.80
2018-11-11T01:07:47.848Z,6.55
2018-11-11T01:08:51.991Z,6.50
2018-11-11T01:09:56.072Z,6.57
2018-11-11T01:11:00.141Z,6.30
2018-11-11T01:12:04.223Z,6.70
2018-11-11T01:13:08.252Z,6.67
2018-11-11T01:14:12.386Z,5.83
2018-11-11T01:15:17.572Z,5.55
2018-11-11T01:16:21.676Z,5.87
2018-11-11T01:17:25.792Z,6.42
2018-11-11T01:18:30.142Z,6.00
2018-11-11T01:19:34.292Z,6.05
2018-11-11T01:20:38.413Z,5.83
2018-11-11T01:21:42.516Z,5.92
2018-11-11T01:22:46.948Z,5.85
2018-11-11T01:23:51.047Z,6.70
2018-11-11T01:24:55.136Z,5.43
2018-11-11T01:25:59.221Z,5.67
2018-11-11T01:27:03.254Z,5.97
2018-11-11T01:28:07.290Z,6.47
2018-11-11T01:29:11.311Z,6.53
2018-11-11T01:30:15.416Z,6.27
2018-11-11T01:31:19.592Z,5.93
2018-11-11T01:32:23.672Z,6.03
2018-11-11T01:33:27.746Z,6.30
2018-11-11T01:34:31.759Z,5.80
2018-11-11T01:35:35.854Z,5.13
2018-11-11T01:36:39.901Z,5.63
2018-11-11T01:37:44.217Z,4.80
2018-11-11T01:38:48.468Z,4.90
2018-11-11T01:39:52.538Z,5.72
2018-11-11T01:40:56.635Z,5.08
2018-11-11T01:42:00.698Z,5.95
2018-11-11T01:43:04.857Z,5.70
2018-11-11T01:44:09.403Z,5.50
2018-11-11T01:45:16.399Z,6.00
2018-11-11T01:46:20.533Z,6.30
2018-11-11T01:47:24.718Z,7.12
2018-11-11T01:48:28.772Z,6.15
2018-11-11T01:49:32.853Z,6.00
2018-11-11T01:50:36.890Z,5.93
2018-11-11T01:51:40.960Z,5.95
2018-11-11T01:52:45.064Z,5.80
2018-11-11T01:53:49.195Z,5.50
2018-11-11T01:54:53.381Z,5.67
2018-11-11T01:55:57.490Z,6.50
2018-11-11T01:57:01.638Z,5.22
2018-11-11T01:58:05.946Z,5.67
2018-11-11T01:59:10.049Z,5.63
2018-11-11T02:00:16.822Z,5.93
2018-11-11T02:01:21.096Z,5.65
2018-11-11T02:02:25.217Z,6.10
2018-11-11T02:03:29.304Z,6.12
2018-11-11T02:04:33.404Z,6.08
2018-11-11T02:05:37.439Z,5.67
2018-11-11T02:06:41.700Z,5.80
2018-11-11T02:07:46.515Z,5.92
2018-11-11T02:08:56.899Z,5.53
2018-11-11T02:10:08.042Z,6.30
2018-11-11T02:11:17.989Z,5.78
2018-11-11T02:12:22.180Z,6.10
2018-11-11T02:13:26.268Z,6.97
2018-11-11T02:14:30.315Z,6.90
2018-11-11T02:15:34.395Z,6.43
2018-11-11T02:16:38.478Z,6.30
2018-11-11T02:17:42.658Z,7.20
2018-11-11T02:18:46.808Z,6.10
2018-11-11T02:19:51.011Z,6.78
2018-11-11T02:20:55.231Z,6.40
2018-11-11T02:21:59.320Z,7.12
2018-11-11T02:23:03.530Z,6.97
2018-11-11T02:24:07.637Z,5.97
2018-11-11T02:25:11.842Z,6.80
2018-11-11T02:26:15.939Z,6.23
2018-11-11T02:27:20.050Z,6.90
2018-11-11T02:28:24.212Z,6.63
2018-11-11T02:29:28.314Z,6.70
2018-11-11T02:30:32.418Z,5.90
2018-11-11T02:31:36.483Z,7.30
2018-11-11T02:32:41.241Z,7.17
2018-11-11T02:33:45.315Z,6.40
2018-11-11T02:34:49.376Z,6.93
2018-11-11T02:35:53.459Z,6.63
2018-11-11T02:36:57.571Z,6.10
2018-11-11T02:38:02.508Z,6.47
2018-11-11T02:39:08.071Z,6.13
2018-11-11T02:40:13.573Z,5.70
2018-11-11T02:41:17.659Z,6.62
2018-11-11T02:42:21.807Z,6.05
2018-11-11T02:43:25.879Z,5.80
2018-11-11T02:44:30.105Z,5.40
2018-11-11T02:45:34.270Z,5.45
2018-11-11T02:46:38.363Z,5.30
2018-11-11T02:47:42.452Z,5.92
2018-11-11T02:48:46.548Z,6.33
2018-11-11T02:49:50.707Z,5.80
2018-11-11T02:50:54.849Z,5.90
2018-11-11T02:51:58.953Z,6.08
2018-11-11T02:53:03.137Z,5.80
2018-11-11T02:54:07.193Z,6.47
2018-11-11T02:55:12.031Z,6.77
2018-11-11T02:56:16.101Z,6.57
2018-11-11T02:57:20.184Z,6.72
2018-11-11T02:58:24.313Z,5.60
2018-11-11T02:59:28.451Z,5.83
2018-11-11T03:00:32.514Z,6.80
2018-11-11T03:01:36.568Z,8.27
2018-11-11T03:02:40.922Z,5.93
2018-11-11T03:03:45.063Z,5.65
2018-11-11T03:04:49.082Z,6.13
2018-11-11T03:05:53.118Z,6.40
2018-11-11T03:06:57.130Z,5.80
2018-11-11T03:08:01.178Z,6.08
2018-11-11T03:09:08.496Z,6.20
2018-11-11T03:10:13.316Z,6.03
2018-11-11T03:11:17.434Z,6.65
2018-11-11T03:12:21.543Z,5.00
2018-11-11T03:13:25.682Z,5.70
2018-11-11T03:14:29.692Z,7.07
2018-11-11T03:15:33.905Z,8.67
2018-11-11T03:16:38.431Z,6.27
2018-11-11T03:17:42.502Z,6.60
2018-11-11T03:18:46.568Z,6.33
2018-11-11T03:19:50.682Z,6.37
2018-11-11T03:20:54.794Z,6.22
2018-11-11T03:21:58.932Z,6.50
2018-11-11T03:23:03.033Z,6.27
2018-11-11T03:24:07.166Z,5.47
2018-11-11T03:25:12.640Z,6.20
2018-11-11T03:26:16.670Z,6.50
2018-11-11T03:27:20.848Z,7.27
2018-11-11T03:28:24.958Z,6.83
2018-11-11T03:29:29.080Z,6.78
2018-11-11T03:30:33.165Z,6.90
2018-11-11T03:31:37.226Z,6.72
2018-11-11T03:32:41.592Z,7.53
2018-11-11T03:33:45.712Z,7.05
2018-11-11T03:34:49.804Z,7.35
2018-11-11T03:35:53.864Z,7.90
2018-11-11T03:36:57.960Z,7.92
2018-11-11T03:38:02.145Z,7.57
2018-11-11T03:39:08.169Z,7.50
2018-11-11T03:40:14.401Z,7.33
2018-11-11T03:41:18.429Z,7.13
2018-11-11T03:42:22.577Z,6.30
2018-11-11T03:43:26.671Z,6.57
2018-11-11T03:44:30.822Z,7.57
2018-11-11T03:45:34.918Z,7.17
2018-11-11T03:46:39.096Z,6.85
2018-11-11T03:47:44.023Z,5.87
2018-11-11T03:48:48.074Z,5.53
2018-11-11T03:49:52.228Z,5.33
2018-11-11T03:50:56.262Z,6.27
2018-11-11T03:52:00.335Z,6.27
2018-11-11T03:53:04.379Z,5.60
2018-11-11T03:54:08.753Z,6.17
2018-11-11T03:55:12.979Z,7.08
2018-11-11T03:56:17.091Z,7.00
2018-11-11T03:57:21.215Z,7.05
2018-11-11T03:58:25.320Z,6.50
2018-11-11T03:59:29.315Z,7.15
2018-11-11T04:00:33.399Z,7.03
2018-11-11T04:01:37.434Z,6.62
2018-11-11T04:02:41.587Z,7.67
2018-11-11T04:03:45.735Z,7.00
2018-11-11T04:04:49.818Z,8.23
2018-11-11T04:05:53.980Z,7.23
2018-11-11T04:06:58.026Z,6.77
2018-11-11T04:08:02.084Z,7.03
2018-11-11T04:09:09.041Z,6.97
2018-11-11T04:10:14.781Z,7.50
2018-11-11T04:11:18.818Z,6.92
2018-11-11T04:12:23.032Z,6.97
2018-11-11T04:13:27.080Z,9.80
2018-11-11T04:14:31.258Z,6.63
2018-11-11T04:15:35.341Z,7.07
2018-11-11T04:16:39.856Z,7.25
2018-11-11T04:17:44.047Z,7.08
2018-11-11T04:18:48.086Z,6.85
2018-11-11T04:19:52.150Z,7.87
2018-11-11T04:20:56.238Z,7.75
2018-11-11T04:22:04.569Z,7.15
2018-11-11T04:23:08.645Z,7.60
2018-11-11T04:24:12.842Z,7.73
2018-11-11T04:25:17.865Z,7.03
2018-11-11T04:26:21.983Z,7.23
2018-11-11T04:27:26.062Z,7.22
2018-11-11T04:28:30.130Z,6.60
2018-11-11T04:29:34.250Z,6.83
2018-11-11T04:30:38.320Z,7.27
2018-11-11T04:31:42.378Z,6.87
2018-11-11T04:32:46.462Z,6.10
2018-11-11T04:33:50.516Z,6.87
2018-11-11T04:34:54.543Z,6.30
2018-11-11T04:35:58.707Z,6.07
2018-11-11T04:37:02.880Z,6.30
2018-11-11T04:38:06.975Z,6.17
2018-11-11T04:39:11.968Z,6.23
2018-11-11T04:40:16.078Z,6.10
2018-11-11T04:41:20.173Z,6.53
2018-11-11T04:42:24.307Z,6.92
2018-11-11T04:43:28.426Z,6.95
2018-11-11T04:44:32.536Z,7.58
2018-11-11T04:45:36.632Z,8.28
2018-11-11T04:46:40.730Z,7.72
2018-11-11T04:47:45.810Z,6.78
2018-11-11T04:48:50.060Z,7.25
2018-11-11T04:49:54.422Z,7.20
2018-11-11T04:50:58.645Z,6.90
2018-11-11T04:52:02.812Z,7.60
2018-11-11T04:53:06.959Z,7.37
2018-11-11T04:54:11.090Z,7.78
2018-11-11T04:55:15.251Z,7.70
2018-11-11T04:56:19.318Z,7.00
2018-11-11T04:57:23.384Z,7.10
2018-11-11T04:58:27.520Z,8.00
2018-11-11T04:59:31.590Z,7.07
2018-11-11T05:00:35.662Z,6.67
2018-11-11T05:01:39.833Z,7.53
2018-11-11T05:02:43.803Z,7.12
2018-11-11T05:03:48.463Z,6.87
2018-11-11T05:04:52.555Z,8.10
2018-11-11T05:05:56.638Z,6.95
2018-11-11T05:07:00.760Z,7.60
2018-11-11T05:08:05.289Z,6.80
2018-11-11T05:09:11.127Z,6.75
2018-11-11T05:10:15.194Z,7.05
2018-11-11T05:11:19.344Z,7.35
2018-11-11T05:12:23.401Z,7.28
2018-11-11T05:13:27.490Z,7.47
2018-11-11T05:14:31.505Z,6.60
2018-11-11T05:15:35.548Z,6.50
2018-11-11T05:16:39.698Z,6.87
2018-11-11T05:17:44.187Z,6.42
2018-11-11T05:18:48.229Z,7.80
2018-11-11T05:19:52.274Z,6.73
2018-11-11T05:20:56.350Z,7.10
2018-11-11T05:22:00.557Z,6.67
2018-11-11T05:23:05.208Z,6.87
2018-11-11T05:24:09.296Z,7.07
2018-11-11T05:25:14.420Z,6.47
2018-11-11T05:26:18.519Z,6.30
2018-11-11T05:27:22.707Z,7.07
2018-11-11T05:28:26.856Z,7.47
2018-11-11T05:29:31.012Z,7.20
2018-11-11T05:30:35.233Z,7.20
2018-11-11T05:31:39.318Z,6.25
2018-11-11T05:32:43.439Z,6.62
2018-11-11T05:33:47.528Z,7.10
2018-11-11T05:34:51.633Z,6.72
2018-11-11T05:35:55.838Z,6.92
2018-11-11T05:36:59.899Z,6.72
2018-11-11T05:38:04.111Z,6.92
2018-11-11T05:39:09.638Z,7.23
2018-11-11T05:40:14.121Z,6.30
2018-11-11T05:41:18.216Z,6.20
2018-11-11T05:42:22.257Z,5.93
2018-11-11T05:43:26.312Z,5.83
2018-11-11T05:44:30.488Z,5.97
2018-11-11T05:45:34.569Z,5.83
2018-11-11T05:46:38.869Z,6.20
2018-11-11T05:47:43.461Z,5.70
2018-11-11T05:48:47.558Z,5.40
2018-11-11T05:49:51.679Z,5.57
2018-11-11T05:50:55.732Z,4.87
2018-11-11T05:51:59.831Z,4.63
2018-11-11T05:53:03.947Z,4.57
2018-11-11T05:54:08.052Z,4.63
2018-11-11T05:55:12.215Z,4.97
2018-11-11T05:56:16.356Z,5.70
2018-11-11T05:57:20.513Z,5.15
2018-11-11T05:58:24.590Z,5.15
2018-11-11T05:59:28.711Z,5.12
2018-11-11T06:00:32.786Z,5.60
2018-11-11T06:01:36.970Z,4.65
2018-11-11T06:02:41.167Z,4.87
2018-11-11T06:03:45.230Z,4.62
2018-11-11T06:04:49.272Z,4.83
2018-11-11T06:05:53.404Z,5.28
2018-11-11T06:06:57.542Z,4.93
2018-11-11T06:08:01.617Z,4.83
2018-11-11T06:09:08.369Z,4.83
2018-11-11T06:10:13.652Z,4.67
2018-11-11T06:11:17.772Z,4.37
2018-11-11T06:12:21.868Z,5.63
2018-11-11T06:13:25.951Z,4.53
2018-11-11T06:14:30.010Z,4.90
2018-11-11T06:15:34.143Z,4.80
2018-11-11T06:16:38.230Z,4.25
2018-11-11T06:17:42.302Z,4.30
2018-11-11T06:18:46.459Z,4.05
2018-11-11T06:19:50.505Z,4.57
2018-11-11T06:20:54.608Z,4.50
2018-11-11T06:21:58.708Z,5.05
2018-11-11T06:23:02.732Z,4.80
2018-11-11T06:24:06.907Z,4.75
2018-11-11T06:25:11.232Z,4.55
2018-11-11T06:26:15.303Z,4.37
2018-11-11T06:27:19.361Z,5.20
2018-11-11T06:28:23.477Z,4.95
2018-11-11T06:29:27.551Z,4.63
2018-11-11T06:30:31.644Z,5.23
2018-11-11T06:31:35.745Z,4.60
2018-11-11T06:32:39.824Z,4.77
2018-11-11T06:33:43.952Z,4.85
2018-11-11T06:34:48.050Z,5.17
2018-11-11T06:35:52.070Z,4.70
2018-11-11T06:36:56.164Z,4.92
2018-11-11T06:38:00.290Z,4.63
2018-11-11T06:39:06.248Z,5.50
2018-11-11T06:40:11.420Z,5.10
2018-11-11T06:41:15.525Z,4.17
2018-11-11T06:42:19.626Z,4.43
2018-11-11T06:43:23.683Z,4.60
2018-11-11T06:44:28.480Z,4.80
2018-11-11T06:45:32.596Z,4.80
2018-11-11T06:46:36.610Z,5.78
2018-11-11T06:47:41.302Z,4.65
2018-11-11T06:48:45.377Z,5.28
2018-11-11T06:49:49.490Z,5.12
2018-11-11T06:50:53.566Z,4.90
2018-11-11T06:51:57.643Z,4.70
2018-11-11T06:53:01.820Z,4.50
2018-11-11T06:54:06.033Z,5.23
2018-11-11T06:55:10.404Z,5.33
2018-11-11T06:56:14.413Z,5.30
2018-11-11T06:57:18.524Z,4.43
2018-11-11T06:58:22.624Z,4.57
2018-11-11T06:59:26.719Z,4.92
2018-11-11T07:00:30.837Z,4.60
2018-11-11T07:01:35.008Z,4.92
2018-11-11T07:02:40.322Z,5.27
2018-11-11T07:03:53.964Z,4.80
2018-11-11T07:04:58.042Z,4.35
2018-11-11T07:06:02.100Z,4.50
2018-11-11T07:07:06.276Z,4.70
2018-11-11T07:08:10.504Z,5.65
2018-11-11T07:09:14.618Z,4.60
2018-11-11T07:10:18.695Z,4.60
2018-11-11T07:11:22.809Z,4.62
2018-11-11T07:12:27.015Z,4.80
2018-11-11T07:13:31.140Z,4.60
2018-11-11T07:14:35.229Z,4.77
2018-11-11T07:15:39.341Z,4.13
2018-11-11T07:16:43.376Z,4.43
2018-11-11T07:17:47.417Z,4.03
2018-11-11T07:18:51.458Z,4.10
2018-11-11T07:19:55.525Z,3.87
2018-11-11T07:20:59.655Z,4.28
2018-11-11T07:22:03.900Z,4.07
2018-11-11T07:23:07.985Z,4.03
2018-11-11T07:24:12.190Z,3.97
2018-11-11T07:25:16.226Z,5.13
2018-11-11T07:26:20.378Z,4.30
2018-11-11T07:27:24.480Z,4.40
2018-11-11T07:28:29.433Z,4.45
2018-11-11T07:29:34.100Z,3.95
2018-11-11T07:30:38.172Z,4.08
2018-11-11T07:31:42.229Z,4.03
2018-11-11T07:32:46.287Z,4.08
2018-11-11T07:33:50.405Z,4.40
2018-11-11T07:34:54.580Z,3.72
2018-11-11T07:35:59.274Z,3.50
2018-11-11T07:37:03.321Z,4.03
2018-11-11T07:38:07.448Z,3.90
2018-11-11T07:39:13.072Z,3.83
2018-11-11T07:40:17.462Z,4.40
2018-11-11T07:41:21.578Z,3.75
2018-11-11T07:42:25.784Z,3.83
2018-11-11T07:43:29.844Z,3.40
2018-11-11T07:44:33.968Z,3.80
2018-11-11T07:45:38.078Z,3.83
2018-11-11T07:46:42.160Z,3.50
2018-11-11T07:47:46.276Z,4.27
2018-11-11T07:48:50.486Z,3.63
2018-11-11T07:49:54.596Z,3.80
2018-11-11T07:50:58.726Z,3.92
2018-11-11T07:52:02.833Z,3.67
2018-11-11T07:53:06.856Z,3.80
2018-11-11T07:54:11.016Z,3.90
2018-11-11T07:55:15.128Z,3.95
2018-11-11T07:56:19.348Z,3.80
2018-11-11T07:57:23.431Z,3.60
2018-11-11T07:58:27.594Z,3.55
2018-11-11T07:59:31.649Z,3.60
2018-11-11T08:00:35.718Z,3.87
2018-11-11T08:01:39.856Z,3.87
2018-11-11T08:02:44.114Z,3.87
2018-11-11T08:03:48.232Z,4.20
2018-11-11T08:04:52.414Z,3.67
2018-11-11T08:05:56.473Z,4.10
2018-11-11T08:07:00.586Z,4.22
2018-11-11T08:08:04.887Z,4.50
2018-11-11T08:09:08.986Z,3.60
2018-11-11T08:10:24.467Z,3.60
2018-11-11T08:11:39.881Z,3.30
2018-11-11T08:12:43.979Z,3.30
2018-11-11T08:13:48.002Z,3.40
2018-11-11T08:14:52.147Z,3.67
2018-11-11T08:15:56.207Z,3.90
2018-11-11T08:17:00.275Z,3.70
2018-11-11T08:18:04.500Z,3.55
2018-11-11T08:19:08.602Z,3.72
2018-11-11T08:20:12.634Z,3.60
2018-11-11T08:21:16.749Z,3.33
2018-11-11T08:22:20.792Z,3.80
2018-11-11T08:23:31.392Z,3.80
2018-11-11T08:24:35.476Z,3.57
2018-11-11T08:25:39.548Z,3.90
2018-11-11T08:26:43.638Z,4.05
2018-11-11T08:27:47.716Z,3.80
2018-11-11T08:28:51.843Z,3.70
2018-11-11T08:29:55.970Z,3.50
2018-11-11T08:31:00.086Z,3.63
2018-11-11T08:32:06.023Z,3.67
2018-11-11T08:33:10.022Z,3.70
2018-11-11T08:34:14.170Z,3.90
2018-11-11T08:35:18.188Z,3.80
2018-11-11T08:36:22.257Z,3.85
2018-11-11T08:37:26.355Z,4.17
2018-11-11T08:38:30.446Z,4.28
2018-11-11T08:39:34.526Z,3.70
2018-11-11T08:40:38.655Z,3.70
2018-11-11T08:41:43.772Z,4.47
2018-11-11T08:42:47.826Z,4.50
2018-11-11T08:43:51.944Z,3.72
2018-11-11T08:44:55.994Z,3.98
2018-11-11T08:46:00.042Z,4.22
2018-11-11T08:47:04.137Z,4.30
2018-11-11T08:48:08.206Z,4.72
2018-11-11T08:49:13.168Z,3.93
2018-11-11T08:50:17.261Z,3.87
2018-11-11T08:51:21.541Z,4.00
2018-11-11T08:52:25.660Z,4.37
2018-11-11T08:53:29.772Z,3.98
2018-11-11T08:54:33.833Z,3.97
2018-11-11T08:55:37.927Z,3.90
2018-11-11T08:56:42.820Z,3.65
2018-11-11T08:57:46.998Z,3.47
2018-11-11T08:58:51.051Z,4.43
2018-11-11T08:59:55.223Z,6.70
2018-11-11T09:00:59.412Z,4.12
2018-11-11T09:02:03.546Z,4.15
2018-11-11T09:03:07.642Z,4.05
2018-11-11T09:04:11.737Z,3.85
2018-11-11T09:05:15.776Z,3.55
2018-11-11T09:06:20.309Z,4.15
2018-11-11T09:07:24.460Z,4.63
2018-11-11T09:08:28.564Z,3.90
2018-11-11T09:09:32.709Z,4.00
2018-11-11T09:10:36.820Z,4.50
2018-11-11T09:11:41.074Z,3.33
2018-11-11T09:12:45.040Z,3.72
2018-11-11T09:13:49.745Z,3.67
2018-11-11T09:14:53.850Z,3.60
2018-11-11T09:15:57.930Z,3.43
2018-11-11T09:17:02.017Z,4.03
2018-11-11T09:18:06.232Z,4.10
2018-11-11T09:19:10.331Z,3.67
2018-11-11T09:20:15.412Z,4.20
2018-11-11T09:21:19.558Z,4.10
2018-11-11T09:22:23.574Z,3.80
2018-11-11T09:23:27.679Z,3.73
2018-11-11T09:24:32.744Z,4.10
2018-11-11T09:25:36.877Z,3.77
2018-11-11T09:26:41.026Z,3.62
2018-11-11T09:27:45.107Z,3.90
2018-11-11T09:28:49.146Z,4.12
2018-11-11T09:29:53.234Z,3.87
2018-11-11T09:30:57.380Z,3.83
2018-11-11T09:32:01.521Z,3.52
2018-11-11T09:33:05.880Z,3.47
2018-11-11T09:34:09.954Z,3.83
2018-11-11T09:35:14.145Z,3.40
2018-11-11T09:36:18.239Z,3.92
2018-11-11T09:37:22.382Z,3.87
2018-11-11T09:38:26.482Z,3.27
2018-11-11T09:39:30.535Z,3.37
2018-11-11T09:40:34.629Z,3.73
2018-11-11T09:41:38.760Z,3.23
2018-11-11T09:42:43.189Z,3.60
2018-11-11T09:43:47.306Z,3.53
2018-11-11T09:44:51.403Z,3.63
2018-11-11T09:45:55.497Z,3.80
2018-11-11T09:46:59.850Z,4.17
2018-11-11T09:48:04.434Z,4.30
2018-11-11T09:49:08.404Z,3.97
2018-11-11T09:50:13.856Z,3.85
2018-11-11T09:51:18.182Z,3.70
2018-11-11T09:52:22.297Z,3.80
2018-11-11T09:53:26.716Z,3.72
2018-11-11T09:54:30.856Z,3.40
2018-11-11T09:55:35.025Z,3.83
2018-11-11T09:56:39.146Z,3.87
2018-11-11T09:57:43.228Z,4.03
2018-11-11T09:58:47.601Z,3.83
2018-11-11T09:59:51.635Z,4.13
2018-11-11T10:00:55.878Z,4.27
2018-11-11T10:02:00.122Z,4.67
2018-11-11T10:03:06.914Z,4.33
2018-11-11T10:04:15.422Z,4.13
2018-11-11T10:05:27.928Z,5.00
2018-11-11T10:06:41.164Z,5.10
2018-11-11T10:07:49.413Z,3.90
2018-11-11T10:08:56.602Z,4.15
2018-11-11T10:11:07.692Z,3.90
2018-11-11T10:12:21.888Z,3.33
2018-11-11T10:13:44.733Z,3.72
2018-11-11T10:14:57.589Z,3.85
2018-11-11T10:16:05.060Z,4.65
2018-11-11T10:17:18.425Z,3.83
2018-11-11T10:18:37.667Z,3.80
2018-11-11T10:19:45.890Z,4.13
2018-11-11T10:21:06.184Z,3.80
2018-11-11T10:22:14.023Z,4.00
2018-11-11T10:25:26.450Z,3.95
2018-11-11T10:26:35.957Z,3.42
2018-11-11T10:28:18.548Z,4.30
2018-11-11T10:30:30.183Z,3.45
2018-11-11T10:31:52.720Z,3.13
2018-11-11T10:35:29.638Z,4.05
2018-11-11T10:36:39.651Z,3.47
2018-11-11T10:37:47.390Z,3.77
2018-11-11T10:38:56.266Z,4.10
2018-11-11T10:40:04.556Z,3.97
2018-11-11T10:43:15.728Z,4.03
2018-11-11T10:44:24.052Z,3.77
2018-11-11T10:45:48.722Z,4.25
2018-11-11T10:46:56.665Z,4.30
2018-11-11T10:48:03.384Z,4.27
2018-11-11T10:49:08.577Z,4.93
2018-11-11T10:50:17.306Z,5.57
2018-11-11T10:51:21.483Z,5.83
2018-11-11T10:52:25.633Z,6.07
2018-11-11T10:53:29.756Z,6.90
2018-11-11T10:54:34.090Z,5.60
2018-11-11T10:55:39.195Z,5.08
2018-11-11T10:56:43.301Z,5.50
2018-11-11T10:57:47.443Z,5.03
2018-11-11T10:58:51.631Z,4.40
2018-11-11T10:59:55.743Z,5.00
2018-11-11T11:01:05.186Z,4.72
2018-11-11T11:02:14.656Z,5.07
2018-11-11T11:03:23.965Z,4.40
2018-11-11T11:04:28.234Z,4.60
2018-11-11T11:05:32.498Z,5.10
2018-11-11T11:06:42.040Z,4.90
2018-11-11T11:07:46.248Z,4.93
2018-11-11T11:08:55.889Z,4.97
2018-11-11T11:10:00.024Z,5.10
2018-11-11T11:11:04.443Z,4.53
2018-11-11T11:12:08.767Z,5.47
2018-11-11T11:13:13.039Z,4.50
2018-11-11T11:14:17.220Z,4.70
2018-11-11T11:15:21.398Z,4.85
2018-11-11T11:16:25.533Z,4.10
2018-11-11T11:17:29.682Z,5.33
2018-11-11T11:18:33.826Z,4.90
2018-11-11T11:19:38.204Z,4.90
2018-11-11T11:20:42.381Z,4.37
2018-11-11T11:21:46.560Z,4.80
2018-11-11T11:22:50.807Z,4.60
2018-11-11T11:23:54.883Z,4.80
2018-11-11T11:24:58.979Z,4.50
2018-11-11T11:26:03.197Z,4.47
2018-11-11T11:27:07.324Z,4.47
2018-11-11T11:28:11.412Z,4.33
2018-11-11T11:29:15.546Z,4.37
2018-11-11T11:30:19.692Z,4.53
2018-11-11T11:31:23.760Z,4.47
2018-11-11T11:32:27.881Z,4.57
2018-11-11T11:33:31.896Z,4.07
2018-11-11T11:34:36.034Z,4.30
2018-11-11T11:35:40.205Z,4.43
2018-11-11T11:36:44.256Z,4.10
2018-11-11T11:37:48.358Z,4.07
2018-11-11T11:38:52.472Z,4.30
2018-11-11T11:39:56.646Z,3.93
2018-11-11T11:41:00.690Z,3.97
2018-11-11T11:42:04.925Z,3.80
2018-11-11T11:43:09.003Z,3.80
2018-11-11T11:44:13.196Z,3.93
2018-11-11T11:45:17.387Z,3.53
2018-11-11T11:46:21.493Z,3.33
2018-11-11T11:47:25.550Z,4.23
2018-11-11T11:48:29.466Z,3.60
2018-11-11T11:49:33.392Z,3.77
2018-11-11T11:50:37.511Z,3.50
2018-11-11T11:51:41.602Z,3.97
2018-11-11T11:52:45.785Z,3.73
2018-11-11T11:53:49.926Z,4.27
2018-11-11T11:54:54.096Z,3.87
2018-11-11T11:55:58.178Z,3.47
2018-11-11T11:57:02.276Z,3.50
2018-11-11T11:58:16.133Z,3.40
2018-11-11T11:59:20.247Z,3.23
2018-11-11T12:00:24.423Z,3.53
2018-11-11T12:01:28.496Z,3.40
2018-11-11T12:02:32.593Z,3.30
2018-11-11T12:03:36.703Z,3.47
2018-11-11T12:04:40.779Z,3.80
2018-11-11T12:05:45.385Z,3.70
2018-11-11T12:06:49.518Z,3.50
2018-11-11T12:07:53.535Z,3.43
2018-11-11T12:08:57.827Z,3.40
2018-11-11T12:10:02.101Z,3.90
2018-11-11T12:11:06.266Z,3.63
2018-11-11T12:12:10.403Z,3.40
2018-11-11T12:13:15.408Z,3.63
2018-11-11T12:14:19.680Z,3.13
2018-11-11T12:15:23.774Z,3.33
2018-11-11T12:16:27.943Z,3.47
2018-11-11T12:17:32.129Z,3.37
2018-11-11T12:18:36.422Z,3.70
2018-11-11T12:19:40.498Z,3.77
2018-11-11T12:20:44.565Z,4.13
2018-11-11T12:21:48.933Z,3.70
2018-11-11T12:22:53.332Z,3.30
2018-11-11T12:23:57.671Z,3.40
2018-11-11T12:25:01.821Z,3.93
2018-11-11T12:26:06.245Z,3.97
2018-11-11T12:27:10.349Z,3.80
2018-11-11T12:28:14.576Z,3.80
2018-11-11T12:29:18.821Z,3.73
2018-11-11T12:30:23.230Z,3.70
2018-11-11T12:31:27.591Z,3.47
2018-11-11T12:32:31.710Z,3.40
2018-11-11T12:33:35.872Z,3.17
2018-11-11T12:34:40.106Z,3.37
2018-11-11T12:35:44.222Z,3.30
2018-11-11T12:36:48.435Z,3.27
2018-11-11T12:37:52.539Z,3.30
2018-11-11T12:38:56.781Z,3.30
2018-11-11T12:40:01.192Z,3.20
2018-11-11T12:41:05.611Z,3.03
2018-11-11T12:42:09.766Z,3.30
2018-11-11T12:43:13.903Z,2.93
2018-11-11T12:44:18.157Z,3.10
2018-11-11T12:45:22.264Z,3.20
2018-11-11T12:46:26.395Z,3.10
2018-11-11T12:47:30.508Z,2.80
2018-11-11T12:48:34.556Z,3.00
2018-11-11T12:49:38.606Z,3.00
2018-11-11T12:50:42.779Z,3.10
2018-11-11T12:51:47.036Z,2.87
2018-11-11T12:52:51.125Z,3.03
2018-11-11T12:53:55.226Z,2.60
2018-11-11T12:54:59.376Z,3.03
2018-11-11T12:56:03.744Z,4.93
2018-11-11T12:57:07.826Z,5.00
2018-11-11T12:58:11.926Z,8.83
2018-11-11T12:59:15.997Z,6.43
2018-11-11T13:00:20.175Z,5.33
2018-11-11T13:01:24.335Z,4.20
2018-11-11T13:02:28.423Z,3.80
2018-11-11T13:03:32.549Z,3.50
2018-11-11T13:04:36.705Z,3.20
2018-11-11T13:05:40.909Z,3.00
2018-11-11T13:06:44.937Z,3.07
2018-11-11T13:07:49.018Z,2.90
2018-11-11T13:08:53.091Z,4.70
2018-11-11T13:09:57.153Z,4.90
2018-11-11T13:11:01.241Z,5.00
2018-11-11T13:12:05.805Z,4.53
2018-11-11T13:13:09.729Z,3.90
2018-11-11T13:14:13.966Z,3.47
2018-11-11T13:15:18.041Z,3.47
2018-11-11T13:16:22.438Z,3.10
2018-11-11T13:17:26.561Z,2.53
2018-11-11T13:18:30.628Z,2.90
2018-11-11T13:19:34.678Z,2.70
2018-11-11T13:20:38.728Z,2.60
2018-11-11T13:21:42.972Z,2.63
2018-11-11T13:22:47.379Z,2.37
2018-11-11T13:23:51.311Z,2.40
2018-11-11T13:24:55.398Z,2.63
2018-11-11T13:25:59.480Z,2.83
2018-11-11T13:27:03.658Z,2.83
2018-11-11T13:28:07.775Z,2.47
2018-11-11T13:29:11.672Z,2.20
2018-11-11T13:30:15.767Z,2.73
2018-11-11T13:31:19.947Z,2.43
2018-11-11T13:32:24.072Z,2.37
2018-11-11T13:33:28.215Z,2.60
2018-11-11T13:34:32.323Z,2.43
2018-11-11T13:35:36.732Z,2.20
2018-11-11T13:36:40.841Z,2.27
2018-11-11T13:37:45.071Z,2.50
2018-11-11T13:38:49.152Z,2.47
2018-11-11T13:39:53.285Z,2.30
2018-11-11T13:40:57.353Z,2.10
2018-11-11T13:42:01.477Z,2.47
2018-11-11T13:43:05.725Z,2.70
2018-11-11T13:44:10.044Z,2.73
2018-11-11T13:45:22.335Z,2.60
2018-11-11T13:46:26.620Z,2.40
2018-11-11T13:47:30.562Z,2.50
2018-11-11T13:48:34.671Z,2.30
2018-11-11T13:49:38.746Z,2.40
2018-11-11T13:50:42.825Z,2.13
2018-11-11T13:51:47.001Z,2.20
2018-11-11T13:52:51.154Z,2.30
2018-11-11T13:53:55.348Z,2.37
2018-11-11T13:54:59.448Z,2.33
2018-11-11T13:56:03.606Z,2.40
2018-11-11T13:57:08.522Z,2.10
2018-11-11T13:58:12.611Z,2.50
2018-11-11T13:59:16.781Z,2.40
2018-11-11T14:00:26.266Z,2.33
2018-11-11T14:01:30.468Z,5.20
2018-11-11T14:02:34.569Z,2.30
2018-11-11T14:03:38.665Z,2.00
2018-11-11T14:04:42.807Z,1.90
2018-11-11T14:05:46.865Z,2.20
2018-11-11T14:06:54.960Z,2.97
2018-11-11T14:07:59.091Z,2.00
2018-11-11T14:09:04.008Z,2.30
2018-11-11T14:10:09.225Z,2.10
2018-11-11T14:11:13.476Z,2.30
2018-11-11T14:12:17.566Z,2.23
2018-11-11T14:13:21.634Z,2.20
2018-11-11T14:14:25.748Z,2.30
2018-11-11T14:15:29.906Z,2.60
2018-11-11T14:16:34.079Z,2.90
2018-11-11T14:17:38.167Z,3.23
2018-11-11T14:18:42.525Z,2.70
2018-11-11T14:19:46.539Z,2.73
2018-11-11T14:20:50.626Z,2.93
2018-11-11T14:21:54.757Z,2.80
2018-11-11T14:22:58.908Z,2.47
2018-11-11T14:24:03.492Z,2.67
2018-11-11T14:25:10.111Z,2.43
2018-11-11T14:26:14.357Z,2.20
2018-11-11T14:27:18.446Z,3.23
2018-11-11T14:28:22.641Z,2.20
2018-11-11T14:29:26.901Z,2.47